createdAt,value
2019-05-20T00:02:23.119Z,19.30
2019-05-20T00:05:01.456Z,19.27
2019-05-20T00:07:47.785Z,18.86
2019-05-20T00:11:17.982Z,18.68
2019-05-20T00:14:08.991Z,18.40
2019-05-20T00:17:02.053Z,18.28
2019-05-20T00:20:00.584Z,18.19
2019-05-20T00:22:35.853Z,18.10
2019-05-20T00:25:24.016Z,18.01
2019-05-20T00:28:16.399Z,17.72
2019-05-20T00:31:05.054Z,17.83
2019-05-20T00:36:27.398Z,18.10
2019-05-20T00:39:42.711Z,18.04
2019-05-20T00:42:26.889Z,18.00
2019-05-20T00:45:05.366Z,18.03
2019-05-20T00:48:03.495Z,18.09
2019-05-20T00:50:46.244Z,18.24
2019-05-20T00:53:31.997Z,18.36
2019-05-20T00:56:23.578Z,18.30
2019-05-20T00:59:10.443Z,18.52
2019-05-20T01:01:51.527Z,18.55
2019-05-20T01:05:07.754Z,18.58
2019-05-20T01:07:56.364Z,18.60
2019-05-20T01:10:49.761Z,18.62
2019-05-20T01:13:31.804Z,18.62
2019-05-20T01:16:22.016Z,18.62
2019-05-20T01:19:08.290Z,18.64
2019-05-20T01:22:00.091Z,18.65
2019-05-20T01:24:43.352Z,18.63
2019-05-20T01:27:29.336Z,18.72
2019-05-20T01:30:17.321Z,18.76
2019-05-20T01:32:55.166Z,18.82
2019-05-20T01:35:46.031Z,18.80
2019-05-20T01:38:25.702Z,18.78
2019-05-20T01:41:10.919Z,18.77
2019-05-20T01:43:55.054Z,18.78
2019-05-20T01:46:58.887Z,18.83
2019-05-20T01:49:39.523Z,18.86
2019-05-20T01:52:20.780Z,18.75
2019-05-20T01:55:15.572Z,18.71
2019-05-20T01:57:59.621Z,18.66
2019-05-20T02:00:41.039Z,18.63
2019-05-20T02:03:31.872Z,18.72
2019-05-20T02:06:01.202Z,18.71
2019-05-20T02:08:52.780Z,18.58
2019-05-20T02:11:44.293Z,18.55
2019-05-20T02:14:33.741Z,18.45
2019-05-20T02:17:13.505Z,18.43
2019-05-20T02:23:23.250Z,18.25
2019-05-20T02:26:08.345Z,18.20
2019-05-20T02:28:57.594Z,18.18
2019-05-20T02:31:38.865Z,18.09
2019-05-20T02:34:18.853Z,18.08
2019-05-20T02:37:13.447Z,18.00
2019-05-20T02:40:08.419Z,18.04
2019-05-20T02:42:49.259Z,18.09
2019-05-20T02:45:39.576Z,18.10
2019-05-20T02:48:35.405Z,18.11
2019-05-20T02:51:46.310Z,18.10
2019-05-20T02:54:42.719Z,18.16
2019-05-20T02:57:25.657Z,18.01
2019-05-20T03:00:14.021Z,18.18
2019-05-20T03:03:02.625Z,18.16
2019-05-20T03:05:49.323Z,18.24
2019-05-20T03:08:28.964Z,18.19
2019-05-20T03:11:22.596Z,17.73
2019-05-20T03:13:57.363Z,17.84
2019-05-20T03:16:46.385Z,17.92
2019-05-20T03:19:31.818Z,17.80
2019-05-20T03:22:28.846Z,17.81
2019-05-20T03:25:35.598Z,17.85
2019-05-20T03:32:09.262Z,17.83
2019-05-20T03:35:16.481Z,17.73
2019-05-20T03:41:10.768Z,17.85
2019-05-20T03:44:15.005Z,17.90
2019-05-20T03:46:49.861Z,17.87
2019-05-20T03:49:40.182Z,17.84
2019-05-20T03:52:30.591Z,17.91
2019-05-20T03:55:15.399Z,18.07
2019-05-20T03:58:24.699Z,18.12
2019-05-20T04:01:16.637Z,18.28
2019-05-20T04:07:09.933Z,18.60
2019-05-20T04:10:15.371Z,18.80
2019-05-20T04:13:26.379Z,18.97
2019-05-20T04:16:45.447Z,19.20
2019-05-20T04:19:44.011Z,19.47
2019-05-20T04:22:43.419Z,19.79
2019-05-20T04:25:36.966Z,19.96
2019-05-20T04:28:15.713Z,19.84
2019-05-20T04:31:03.777Z,19.84
2019-05-20T04:33:42.515Z,19.96
2019-05-20T04:36:43.060Z,19.96
2019-05-20T04:39:36.647Z,20.01
2019-05-20T04:42:16.164Z,20.10
2019-05-20T04:44:59.902Z,19.99
2019-05-20T04:47:57.019Z,20.02
2019-05-20T04:50:41.628Z,20.05
2019-05-20T04:53:21.863Z,20.05
2019-05-20T04:56:29.377Z,20.25
2019-05-20T04:59:22.798Z,20.08
2019-05-20T05:02:30.301Z,20.08
2019-05-20T05:05:50.074Z,20.12
2019-05-20T05:08:46.371Z,20.34
2019-05-20T05:11:39.834Z,20.45
2019-05-20T05:14:34.345Z,20.32
2019-05-20T05:17:12.818Z,20.60
2019-05-20T05:19:56.663Z,20.45
2019-05-20T05:22:54.471Z,20.45
2019-05-20T05:25:51.864Z,20.47
2019-05-20T05:28:35.333Z,20.62
2019-05-20T05:31:37.760Z,20.73
2019-05-20T05:38:00.014Z,20.80
2019-05-20T05:40:51.553Z,20.95
2019-05-20T05:43:40.069Z,20.95
2019-05-20T05:46:33.314Z,21.02
2019-05-20T05:49:18.506Z,21.02
2019-05-20T05:52:14.476Z,21.02
2019-05-20T05:58:10.649Z,21.32
2019-05-20T06:01:21.823Z,21.47
2019-05-20T06:04:06.462Z,21.78
2019-05-20T06:07:16.389Z,22.01
2019-05-20T06:10:08.733Z,22.36
2019-05-20T06:13:02.782Z,22.40
2019-05-20T06:15:58.545Z,21.89
2019-05-20T06:18:59.754Z,22.04
2019-05-20T06:21:54.691Z,22.36
2019-05-20T06:24:36.068Z,22.99
2019-05-20T06:27:39.742Z,22.97
2019-05-20T06:30:22.778Z,23.15
2019-05-20T06:33:23.416Z,22.70
2019-05-20T06:36:39.275Z,23.22
2019-05-20T06:39:40.408Z,23.42
2019-05-20T06:42:53.218Z,24.07
2019-05-20T06:45:42.047Z,24.31
2019-05-20T06:48:43.347Z,24.65
2019-05-20T06:51:24.652Z,24.71
2019-05-20T06:54:30.296Z,23.76
2019-05-20T06:57:33.074Z,23.55
2019-05-20T07:00:19.492Z,23.63
2019-05-20T07:03:06.802Z,23.61
2019-05-20T07:06:19.640Z,23.64
2019-05-20T07:12:40.091Z,23.83
2019-05-20T07:15:22.876Z,24.22
2019-05-20T07:18:07.410Z,24.60
2019-05-20T07:20:58.990Z,25.10
2019-05-20T07:24:36.787Z,25.25
2019-05-20T07:29:51.163Z,25.33
2019-05-20T07:32:38.827Z,25.42
2019-05-20T07:35:29.475Z,25.87
2019-05-20T07:38:12.434Z,26.14
2019-05-20T07:41:19.200Z,26.26
2019-05-20T07:44:09.023Z,26.61
2019-05-20T07:46:59.822Z,26.78
2019-05-20T07:50:22.715Z,27.00
2019-05-20T07:53:12.043Z,27.42
2019-05-20T07:56:07.465Z,27.23
2019-05-20T07:59:10.325Z,27.27
2019-05-20T08:02:06.597Z,27.42
2019-05-20T08:05:14.134Z,27.10
2019-05-20T08:07:52.551Z,27.23
2019-05-20T08:10:31.922Z,26.78
2019-05-20T08:16:53.484Z,27.25
2019-05-20T08:19:31.842Z,27.18
2019-05-20T08:22:17.439Z,27.16
2019-05-20T08:31:29.232Z,27.25
2019-05-20T08:34:30.084Z,26.92
2019-05-20T08:37:44.830Z,26.27
2019-05-20T08:43:35.364Z,27.56
2019-05-20T08:46:17.210Z,26.90
2019-05-20T08:49:24.796Z,26.46
2019-05-20T08:52:17.759Z,26.50
2019-05-20T08:55:12.056Z,26.79
2019-05-20T08:57:54.976Z,26.55
2019-05-20T09:00:46.979Z,27.77
2019-05-20T09:03:36.514Z,27.23
2019-05-20T09:06:31.526Z,27.21
2019-05-20T09:09:16.007Z,26.84
2019-05-20T09:12:12.439Z,26.78
2019-05-20T09:14:55.951Z,26.76
2019-05-20T09:17:46.635Z,26.53
2019-05-20T09:20:46.432Z,26.80
2019-05-20T09:23:32.290Z,26.70
2019-05-20T09:26:20.875Z,27.21
2019-05-20T09:29:11.072Z,27.38
2019-05-20T09:32:04.711Z,27.35
2019-05-20T09:34:59.645Z,27.73
2019-05-20T09:38:24.307Z,27.50
2019-05-20T09:41:40.757Z,27.98
2019-05-20T09:44:33.852Z,28.28
2019-05-20T09:47:37.255Z,28.41
2019-05-20T09:53:58.538Z,28.63
2019-05-20T09:56:57.860Z,28.60
2019-05-20T10:00:14.143Z,28.56
2019-05-20T10:03:11.295Z,28.44
2019-05-20T10:06:14.558Z,28.27
2019-05-20T10:09:07.302Z,28.25
2019-05-20T10:11:52.689Z,28.37
2019-05-20T10:14:37.032Z,28.13
2019-05-20T10:17:46.514Z,28.16
2019-05-20T10:20:27.829Z,27.81
2019-05-20T10:23:41.349Z,27.54
2019-05-20T10:26:47.469Z,27.49
2019-05-20T10:29:44.663Z,27.59
2019-05-20T10:32:44.611Z,27.60
2019-05-20T10:35:26.831Z,28.11
2019-05-20T10:44:44.130Z,28.69
2019-05-20T10:47:49.173Z,28.86
2019-05-20T10:51:38.714Z,28.88
2019-05-20T10:53:47.759Z,28.72
2019-05-20T10:56:51.376Z,29.05
2019-05-20T10:59:31.961Z,29.25
2019-05-20T11:02:30.986Z,28.94
2019-05-20T11:05:12.170Z,28.55
2019-05-20T11:08:02.725Z,28.65
2019-05-20T11:10:58.578Z,28.95
2019-05-20T11:14:02.107Z,28.94
2019-05-20T11:16:39.297Z,28.08
2019-05-20T11:22:34.550Z,28.40
2019-05-20T11:25:21.495Z,28.04
2019-05-20T11:31:00.099Z,27.90
2019-05-20T11:33:29.703Z,28.50
2019-05-20T11:35:59.498Z,28.51
2019-05-20T11:38:29.582Z,28.52
2019-05-20T11:40:59.347Z,28.85
2019-05-20T11:43:29.146Z,29.07
2019-05-20T11:45:59.027Z,29.33
2019-05-20T11:48:28.879Z,30.08
2019-05-20T11:50:58.777Z,29.99
2019-05-20T11:53:28.729Z,29.97
2019-05-20T11:55:58.608Z,29.59
2019-05-20T11:58:28.441Z,29.22
2019-05-20T12:00:58.670Z,29.78
2019-05-20T12:03:28.554Z,29.82
2019-05-20T12:05:58.230Z,30.68
2019-05-20T12:08:28.135Z,30.90
2019-05-20T12:10:57.952Z,30.89
2019-05-20T12:13:27.832Z,30.18
2019-05-20T12:15:57.746Z,30.54
2019-05-20T12:18:27.684Z,30.19
2019-05-20T12:20:57.568Z,31.02
2019-05-20T12:23:27.285Z,31.22
2019-05-20T12:25:56.959Z,31.69
2019-05-20T12:28:27.033Z,30.81
2019-05-20T12:30:56.828Z,30.18
2019-05-20T12:33:26.609Z,30.27
2019-05-20T12:35:56.289Z,29.59
2019-05-20T12:38:25.984Z,29.15
2019-05-20T12:40:55.945Z,29.26
2019-05-20T12:43:25.796Z,28.92
2019-05-20T12:45:55.419Z,28.53
2019-05-20T12:48:25.412Z,28.60
2019-05-20T12:50:55.260Z,28.71
2019-05-20T12:53:25.069Z,28.64
2019-05-20T12:55:55.033Z,28.82
2019-05-20T12:58:25.032Z,29.02
2019-05-20T13:00:54.736Z,29.34
2019-05-20T13:03:25.908Z,29.90
2019-05-20T13:05:55.676Z,29.47
2019-05-20T13:08:25.489Z,29.43
2019-05-20T13:10:56.565Z,29.68
2019-05-20T13:13:26.446Z,30.18
2019-05-20T13:15:56.355Z,30.00
2019-05-20T13:18:26.412Z,29.91
2019-05-20T13:20:56.273Z,29.72
2019-05-20T13:23:26.116Z,29.68
2019-05-20T13:25:55.986Z,29.50
2019-05-20T13:28:26.015Z,29.50
2019-05-20T13:30:55.989Z,30.70
2019-05-20T13:33:25.803Z,31.32
2019-05-20T13:35:56.982Z,31.01
2019-05-20T13:38:26.850Z,30.36
2019-05-20T13:40:56.765Z,30.54
2019-05-20T13:43:26.644Z,30.44
2019-05-20T13:45:56.517Z,30.22
2019-05-20T13:48:26.330Z,30.86
2019-05-20T13:50:56.680Z,32.11
2019-05-20T13:53:26.582Z,32.38
2019-05-20T13:55:56.371Z,32.61
2019-05-20T13:58:25.926Z,32.32
2019-05-20T14:00:55.713Z,32.47
2019-05-20T14:03:25.498Z,32.26
2019-05-20T14:05:55.490Z,30.99
2019-05-20T14:08:25.230Z,31.27
2019-05-20T14:11:04.462Z,31.30
2019-05-20T14:13:26.549Z,30.85
2019-05-20T14:15:56.315Z,30.02
2019-05-20T14:18:26.150Z,30.97
2019-05-20T14:20:57.323Z,31.74
2019-05-20T14:23:27.195Z,32.06
2019-05-20T14:25:57.052Z,32.27
2019-05-20T14:28:26.871Z,33.02
2019-05-20T14:30:56.768Z,33.48
2019-05-20T14:33:26.717Z,32.48
2019-05-20T14:35:56.574Z,32.72
2019-05-20T14:38:26.590Z,31.66
2019-05-20T14:40:56.466Z,31.97
2019-05-20T14:43:26.329Z,33.55
2019-05-20T14:45:56.006Z,34.36
2019-05-20T14:48:25.789Z,33.92
2019-05-20T14:50:55.799Z,34.13
2019-05-20T14:53:25.597Z,33.98
2019-05-20T14:55:55.539Z,34.34
2019-05-20T14:58:25.420Z,33.59
2019-05-20T15:00:55.331Z,33.48
2019-05-20T15:03:25.238Z,32.96
2019-05-20T15:05:54.890Z,33.05
2019-05-20T15:08:24.960Z,32.81
2019-05-20T15:10:54.947Z,32.14
2019-05-20T15:13:24.817Z,32.17
2019-05-20T15:15:54.627Z,32.38
2019-05-20T15:18:24.713Z,32.32
2019-05-20T15:20:54.281Z,32.24
2019-05-20T15:23:24.116Z,31.77
2019-05-20T15:25:55.346Z,31.47
2019-05-20T15:28:25.264Z,31.26
2019-05-20T15:30:55.431Z,31.21
2019-05-20T15:33:25.301Z,31.24
2019-05-20T15:35:55.275Z,31.71
2019-05-20T15:38:25.144Z,31.86
2019-05-20T15:40:55.062Z,31.20
2019-05-20T15:43:24.996Z,30.57
2019-05-20T15:45:54.885Z,30.63
2019-05-20T15:48:25.652Z,30.77
2019-05-20T15:50:55.422Z,31.99
2019-05-20T15:53:25.359Z,31.72
2019-05-20T15:55:55.200Z,31.26
2019-05-20T15:58:25.086Z,31.39
2019-05-20T16:00:54.871Z,30.50
2019-05-20T16:03:24.765Z,30.15
2019-05-20T16:05:54.629Z,30.43
2019-05-20T16:08:24.749Z,29.89
2019-05-20T16:10:54.614Z,29.29
2019-05-20T16:13:24.358Z,29.58
2019-05-20T16:15:54.231Z,30.04
2019-05-20T16:18:24.015Z,30.20
2019-05-20T16:20:53.933Z,30.29
2019-05-20T16:23:24.110Z,30.14
2019-05-20T16:25:54.075Z,28.82
2019-05-20T16:28:23.859Z,29.38
2019-05-20T16:30:53.638Z,29.78
2019-05-20T16:33:23.312Z,29.99
2019-05-20T16:35:52.996Z,30.53
2019-05-20T16:38:22.934Z,30.04
2019-05-20T16:40:52.840Z,29.86
2019-05-20T16:43:22.650Z,29.57
2019-05-20T16:45:52.410Z,28.97
2019-05-20T16:48:22.300Z,28.80
2019-05-20T16:50:52.120Z,29.64
2019-05-20T16:53:21.862Z,29.06
2019-05-20T16:55:52.867Z,28.68
2019-05-20T16:58:22.846Z,28.24
2019-05-20T17:00:52.704Z,28.03
2019-05-20T17:03:22.524Z,27.75
2019-05-20T17:05:52.491Z,27.47
2019-05-20T17:08:22.329Z,27.18
2019-05-20T17:10:52.348Z,26.94
2019-05-20T17:13:22.218Z,26.61
2019-05-20T17:15:52.024Z,26.43
2019-05-20T17:18:21.823Z,25.95
2019-05-20T17:20:51.928Z,25.39
2019-05-20T17:23:21.745Z,25.12
2019-05-20T17:25:51.719Z,24.92
2019-05-20T17:28:21.579Z,24.75
2019-05-20T17:30:51.504Z,24.70
2019-05-20T17:33:21.494Z,24.55
2019-05-20T17:35:51.368Z,24.48
2019-05-20T17:38:21.169Z,24.28
2019-05-20T17:40:51.097Z,24.21
2019-05-20T17:43:20.985Z,24.09
2019-05-20T17:45:50.898Z,24.00
2019-05-20T17:48:21.958Z,23.99
2019-05-20T17:50:52.196Z,23.83
2019-05-20T17:53:21.887Z,23.68
2019-05-20T17:55:52.052Z,23.63
2019-05-20T17:58:21.913Z,23.59
2019-05-20T18:00:51.856Z,23.56
2019-05-20T18:03:22.012Z,23.46
2019-05-20T18:05:51.752Z,23.31
2019-05-20T18:08:24.576Z,21.99
2019-05-20T18:10:54.572Z,20.82
2019-05-20T18:13:24.384Z,20.99
2019-05-20T18:15:54.311Z,21.76
2019-05-20T18:18:25.178Z,21.76
2019-05-20T18:20:56.585Z,21.93
2019-05-20T18:23:26.739Z,22.09
2019-05-20T18:25:57.786Z,21.99
2019-05-20T18:28:27.687Z,22.23
2019-05-20T18:30:57.661Z,22.39
2019-05-20T18:33:27.421Z,22.56
2019-05-20T18:35:57.223Z,22.94
2019-05-20T18:38:27.030Z,23.11
2019-05-20T18:40:56.744Z,23.15
2019-05-20T18:43:26.612Z,23.02
2019-05-20T18:45:56.480Z,22.85
2019-05-20T18:48:26.499Z,22.87
2019-05-20T18:50:57.570Z,22.72
2019-05-20T18:53:27.356Z,22.61
2019-05-20T18:55:57.221Z,22.54
2019-05-20T18:58:28.023Z,22.44
2019-05-20T19:00:57.762Z,22.44
2019-05-20T19:03:28.478Z,22.35
2019-05-20T19:05:58.687Z,22.21
2019-05-20T19:08:28.532Z,22.10
2019-05-20T19:10:58.733Z,22.08
2019-05-20T19:13:28.535Z,22.04
2019-05-20T19:15:58.401Z,21.90
2019-05-20T19:18:28.261Z,21.87
2019-05-20T19:20:58.181Z,21.80
2019-05-20T19:23:29.135Z,21.80
2019-05-20T19:25:59.043Z,21.76
2019-05-20T19:28:29.074Z,21.73
2019-05-20T19:30:58.974Z,21.73
2019-05-20T19:33:28.776Z,21.68
2019-05-20T19:35:58.643Z,21.68
2019-05-20T19:38:32.839Z,21.60
2019-05-20T19:40:59.863Z,21.41
2019-05-20T19:43:29.756Z,21.09
2019-05-20T19:45:59.597Z,21.09
2019-05-20T19:48:29.355Z,21.12
2019-05-20T19:50:59.266Z,21.15
2019-05-20T19:53:29.038Z,21.11
2019-05-20T19:55:58.879Z,21.11
2019-05-20T19:58:28.825Z,21.13
2019-05-20T20:00:58.695Z,21.13
2019-05-20T20:03:28.627Z,21.08
2019-05-20T20:05:58.800Z,21.01
2019-05-20T20:08:28.771Z,20.96
2019-05-20T20:10:58.659Z,20.96
2019-05-20T20:13:28.651Z,21.04
2019-05-20T20:15:58.401Z,21.12
2019-05-20T20:18:28.435Z,21.26
2019-05-20T20:20:58.317Z,21.26
2019-05-20T20:23:28.046Z,21.25
2019-05-20T20:25:57.938Z,21.22
2019-05-20T20:28:27.692Z,21.21
2019-05-20T20:30:57.516Z,21.11
2019-05-20T20:33:27.485Z,21.02
2019-05-20T20:35:58.629Z,20.98
2019-05-20T20:38:28.384Z,20.88
2019-05-20T20:40:58.337Z,20.96
2019-05-20T20:43:31.982Z,20.94
2019-05-20T20:46:00.200Z,20.89
2019-05-20T20:48:30.003Z,20.89
2019-05-20T20:50:59.699Z,20.82
2019-05-20T20:53:29.548Z,20.07
2019-05-20T20:55:59.223Z,20.04
2019-05-20T20:58:29.039Z,20.19
2019-05-20T21:00:59.003Z,20.19
2019-05-20T21:03:28.866Z,20.26
2019-05-20T21:05:58.804Z,20.23
2019-05-20T21:08:28.628Z,20.24
2019-05-20T21:10:58.531Z,20.27
2019-05-20T21:13:28.764Z,20.26
2019-05-20T21:15:58.730Z,20.02
2019-05-20T21:18:30.916Z,20.02
2019-05-20T21:21:00.645Z,19.92
2019-05-20T21:23:30.525Z,19.84
2019-05-20T21:26:00.393Z,19.82
2019-05-20T21:28:30.406Z,19.73
2019-05-20T21:31:00.319Z,19.63
2019-05-20T21:33:30.153Z,19.65
2019-05-20T21:36:00.083Z,19.68
2019-05-20T21:38:29.984Z,19.77
2019-05-20T21:40:59.758Z,19.78
2019-05-20T21:43:29.608Z,19.79
2019-05-20T21:45:59.517Z,19.79
2019-05-20T21:48:29.552Z,19.78
2019-05-20T21:50:59.356Z,19.75
2019-05-20T21:53:30.512Z,19.70
2019-05-20T21:56:00.408Z,19.65
2019-05-20T21:58:30.338Z,19.69
2019-05-20T22:01:00.535Z,19.61
2019-05-20T22:03:30.263Z,19.58
2019-05-20T22:06:00.070Z,19.51
2019-05-20T22:08:29.918Z,19.51
2019-05-20T22:10:59.616Z,19.42
2019-05-20T22:13:29.404Z,19.47
2019-05-20T22:15:59.434Z,19.47
2019-05-20T22:18:29.245Z,19.46
2019-05-20T22:21:00.414Z,19.41
2019-05-20T22:23:49.088Z,19.40
2019-05-20T22:26:18.798Z,19.37
2019-05-20T22:28:48.693Z,19.36
2019-05-20T22:31:18.604Z,19.33
2019-05-20T22:33:48.464Z,19.36
2019-05-20T22:36:18.336Z,19.24
2019-05-20T22:38:48.258Z,19.14
2019-05-20T22:41:18.287Z,19.06
2019-05-20T22:43:48.101Z,19.08
2019-05-20T22:46:17.987Z,19.15
2019-05-20T22:48:47.960Z,19.10
2019-05-20T22:51:17.816Z,19.09
2019-05-20T22:53:47.436Z,19.10
2019-05-20T22:56:18.513Z,19.11
2019-05-20T22:58:48.204Z,19.04
2019-05-20T23:01:18.096Z,19.00
2019-05-20T23:03:56.375Z,19.04
2019-05-20T23:06:20.287Z,18.97
2019-05-20T23:08:50.132Z,19.02
2019-05-20T23:11:20.093Z,19.07
2019-05-20T23:13:49.940Z,19.10
2019-05-20T23:16:19.860Z,19.09
2019-05-20T23:18:49.844Z,19.07
2019-05-20T23:21:19.750Z,19.08
2019-05-20T23:23:49.665Z,19.05
2019-05-20T23:26:19.577Z,18.81
2019-05-20T23:28:49.449Z,18.62
2019-05-20T23:31:19.387Z,18.64
2019-05-20T23:33:49.222Z,18.54
2019-05-20T23:36:18.882Z,18.51
2019-05-20T23:38:48.781Z,18.33
2019-05-20T23:41:19.008Z,18.37
2019-05-20T23:43:49.440Z,18.17
2019-05-20T23:46:19.340Z,17.83
2019-05-20T23:48:49.308Z,17.72
2019-05-20T23:51:19.340Z,17.51
2019-05-20T23:53:49.161Z,17.38
2019-05-20T23:56:18.968Z,17.31
2019-05-20T23:58:48.853Z,17.26
